sensor_id;sensor_type;location;lat;lon;timestamp;P1;durP1;ratioP1;P2;durP2;ratioP2
37067;SDS011;22982;42.848;25.468;2023-07-20T00:05:13;36.15;;;4.40;;
37067;SDS011;22982;42.848;25.468;2023-07-20T00:10:16;22.33;;;3.53;;
37067;SDS011;22982;42.848;25.468;2023-07-20T00:15:18;14.85;;;3.33;;
37067;SDS011;22982;42.848;25.468;2023-07-20T00:20:21;10.73;;;2.85;;
37067;SDS011;22982;42.848;25.468;2023-07-20T00:25:27;9.25;;;2.80;;
37067;SDS011;22982;42.848;25.468;2023-07-20T00:30:29;22.63;;;3.13;;
37067;SDS011;22982;42.848;25.468;2023-07-20T00:35:32;14.27;;;2.40;;
37067;SDS011;22982;42.848;25.468;2023-07-20T00:40:35;9.15;;;2.47;;
37067;SDS011;22982;42.848;25.468;2023-07-20T00:45:41;7.95;;;2.50;;
37067;SDS011;22982;42.848;25.468;2023-07-20T00:50:46;11.45;;;2.38;;
37067;SDS011;22982;42.848;25.468;2023-07-20T00:55:50;9.13;;;2.55;;
37067;SDS011;22982;42.848;25.468;2023-07-20T01:00:53;12.98;;;3.25;;
37067;SDS011;22982;42.848;25.468;2023-07-20T01:06:10;11.40;;;3.35;;
37067;SDS011;22982;42.848;25.468;2023-07-20T01:11:28;9.43;;;3.50;;
37067;SDS011;22982;42.848;25.468;2023-07-20T01:16:53;11.13;;;3.60;;
37067;SDS011;22982;42.848;25.468;2023-07-20T01:22:02;12.80;;;3.65;;
37067;SDS011;22982;42.848;25.468;2023-07-20T01:32:40;7.97;;;3.60;;
37067;SDS011;22982;42.848;25.468;2023-07-20T01:37:46;14.10;;;3.75;;
37067;SDS011;22982;42.848;25.468;2023-07-20T01:42:49;14.20;;;4.13;;
37067;SDS011;22982;42.848;25.468;2023-07-20T01:47:54;7.57;;;3.40;;
37067;SDS011;22982;42.848;25.468;2023-07-20T01:52:56;12.77;;;3.35;;
37067;SDS011;22982;42.848;25.468;2023-07-20T01:57:59;7.25;;;3.38;;
37067;SDS011;22982;42.848;25.468;2023-07-20T02:03:03;13.05;;;4.18;;
37067;SDS011;22982;42.848;25.468;2023-07-20T02:08:05;12.98;;;4.65;;
37067;SDS011;22982;42.848;25.468;2023-07-20T02:13:08;12.35;;;4.95;;
37067;SDS011;22982;42.848;25.468;2023-07-20T02:18:10;12.93;;;5.22;;
37067;SDS011;22982;42.848;25.468;2023-07-20T02:23:12;14.90;;;4.85;;
37067;SDS011;22982;42.848;25.468;2023-07-20T02:28:15;18.40;;;4.85;;
37067;SDS011;22982;42.848;25.468;2023-07-20T02:33:17;10.30;;;4.68;;
37067;SDS011;22982;42.848;25.468;2023-07-20T02:38:21;13.20;;;4.45;;
37067;SDS011;22982;42.848;25.468;2023-07-20T02:43:24;10.27;;;5.20;;
37067;SDS011;22982;42.848;25.468;2023-07-20T02:48:27;13.60;;;4.53;;
37067;SDS011;22982;42.848;25.468;2023-07-20T02:53:29;7.75;;;4.75;;
37067;SDS011;22982;42.848;25.468;2023-07-20T02:58:33;14.38;;;5.22;;
37067;SDS011;22982;42.848;25.468;2023-07-20T03:03:42;11.88;;;5.47;;
37067;SDS011;22982;42.848;25.468;2023-07-20T03:08:48;8.05;;;5.57;;
37067;SDS011;22982;42.848;25.468;2023-07-20T03:13:54;13.40;;;5.50;;
37067;SDS011;22982;42.848;25.468;2023-07-20T03:18:57;11.80;;;6.18;;
37067;SDS011;22982;42.848;25.468;2023-07-20T03:24:00;10.25;;;6.20;;
37067;SDS011;22982;42.848;25.468;2023-07-20T03:29:03;15.38;;;6.28;;
37067;SDS011;22982;42.848;25.468;2023-07-20T03:34:08;12.35;;;6.15;;
37067;SDS011;22982;42.848;25.468;2023-07-20T03:39:11;12.25;;;6.32;;
37067;SDS011;22982;42.848;25.468;2023-07-20T03:44:13;15.75;;;6.53;;
37067;SDS011;22982;42.848;25.468;2023-07-20T03:49:16;9.35;;;5.97;;
37067;SDS011;22982;42.848;25.468;2023-07-20T03:54:19;14.73;;;6.40;;
37067;SDS011;22982;42.848;25.468;2023-07-20T03:59:22;13.68;;;7.20;;
37067;SDS011;22982;42.848;25.468;2023-07-20T04:04:25;13.02;;;6.70;;
37067;SDS011;22982;42.848;25.468;2023-07-20T04:09:27;14.02;;;7.55;;
37067;SDS011;22982;42.848;25.468;2023-07-20T04:21:28;11.80;;;6.78;;
37067;SDS011;22982;42.848;25.468;2023-07-20T04:26:31;11.48;;;6.50;;
37067;SDS011;22982;42.848;25.468;2023-07-20T04:31:33;12.05;;;7.05;;
37067;SDS011;22982;42.848;25.468;2023-07-20T04:36:38;9.90;;;6.78;;
37067;SDS011;22982;42.848;25.468;2023-07-20T04:48:14;12.65;;;7.03;;
37067;SDS011;22982;42.848;25.468;2023-07-20T04:53:25;14.67;;;7.67;;
37067;SDS011;22982;42.848;25.468;2023-07-20T04:58:28;18.63;;;8.48;;
37067;SDS011;22982;42.848;25.468;2023-07-20T05:03:30;12.40;;;7.88;;
37067;SDS011;22982;42.848;25.468;2023-07-20T05:08:33;10.90;;;6.43;;
37067;SDS011;22982;42.848;25.468;2023-07-20T05:13:36;7.88;;;5.93;;
37067;SDS011;22982;42.848;25.468;2023-07-20T05:18:39;13.18;;;6.25;;
37067;SDS011;22982;42.848;25.468;2023-07-20T05:23:42;11.38;;;5.60;;
37067;SDS011;22982;42.848;25.468;2023-07-20T05:28:47;11.43;;;5.20;;
37067;SDS011;22982;42.848;25.468;2023-07-20T05:33:49;10.70;;;5.35;;
37067;SDS011;22982;42.848;25.468;2023-07-20T05:38:52;11.18;;;5.90;;
37067;SDS011;22982;42.848;25.468;2023-07-20T05:43:54;9.73;;;5.32;;
37067;SDS011;22982;42.848;25.468;2023-07-20T05:48:58;10.32;;;4.78;;
37067;SDS011;22982;42.848;25.468;2023-07-20T06:18:47;10.48;;;4.90;;
37067;SDS011;22982;42.848;25.468;2023-07-20T06:23:49;10.63;;;5.18;;
37067;SDS011;22982;42.848;25.468;2023-07-20T06:28:53;9.20;;;4.88;;
37067;SDS011;22982;42.848;25.468;2023-07-20T06:33:55;8.52;;;5.60;;
37067;SDS011;22982;42.848;25.468;2023-07-20T06:38:58;10.18;;;5.05;;
37067;SDS011;22982;42.848;25.468;2023-07-20T06:44:04;9.43;;;4.53;;
37067;SDS011;22982;42.848;25.468;2023-07-20T06:49:07;10.32;;;4.38;;
37067;SDS011;22982;42.848;25.468;2023-07-20T07:00:57;14.13;;;5.05;;
37067;SDS011;22982;42.848;25.468;2023-07-20T07:06:00;7.60;;;5.07;;
37067;SDS011;22982;42.848;25.468;2023-07-20T07:11:03;9.40;;;5.20;;
37067;SDS011;22982;42.848;25.468;2023-07-20T07:16:07;9.25;;;4.28;;
37067;SDS011;22982;42.848;25.468;2023-07-20T07:21:10;12.00;;;4.70;;
37067;SDS011;22982;42.848;25.468;2023-07-20T07:26:13;12.00;;;4.93;;
37067;SDS011;22982;42.848;25.468;2023-07-20T07:31:16;6.57;;;4.00;;
37067;SDS011;22982;42.848;25.468;2023-07-20T07:36:18;11.95;;;3.70;;
37067;SDS011;22982;42.848;25.468;2023-07-20T07:41:21;11.18;;;4.93;;
37067;SDS011;22982;42.848;25.468;2023-07-20T07:46:25;23.17;;;7.85;;
37067;SDS011;22982;42.848;25.468;2023-07-20T07:51:27;7.20;;;3.63;;
37067;SDS011;22982;42.848;25.468;2023-07-20T07:56:29;8.20;;;3.90;;
37067;SDS011;22982;42.848;25.468;2023-07-20T08:01:36;8.05;;;3.33;;
37067;SDS011;22982;42.848;25.468;2023-07-20T08:06:38;9.90;;;5.47;;
37067;SDS011;22982;42.848;25.468;2023-07-20T08:11:41;12.57;;;3.45;;
37067;SDS011;22982;42.848;25.468;2023-07-20T08:16:43;6.15;;;2.80;;
37067;SDS011;22982;42.848;25.468;2023-07-20T08:21:47;10.82;;;2.88;;
37067;SDS011;22982;42.848;25.468;2023-07-20T08:26:50;8.10;;;2.85;;
37067;SDS011;22982;42.848;25.468;2023-07-20T08:31:52;10.23;;;3.13;;
37067;SDS011;22982;42.848;25.468;2023-07-20T08:36:56;6.28;;;3.33;;
37067;SDS011;22982;42.848;25.468;2023-07-20T08:41:59;7.88;;;3.40;;
37067;SDS011;22982;42.848;25.468;2023-07-20T08:47:07;5.25;;;3.08;;
37067;SDS011;22982;42.848;25.468;2023-07-20T08:52:11;9.25;;;3.22;;
37067;SDS011;22982;42.848;25.468;2023-07-20T08:57:13;7.88;;;3.40;;
37067;SDS011;22982;42.848;25.468;2023-07-20T09:02:17;9.02;;;2.80;;
37067;SDS011;22982;42.848;25.468;2023-07-20T09:07:20;8.05;;;2.67;;
37067;SDS011;22982;42.848;25.468;2023-07-20T09:12:25;5.85;;;2.90;;
37067;SDS011;22982;42.848;25.468;2023-07-20T09:24:32;8.43;;;3.20;;
37067;SDS011;22982;42.848;25.468;2023-07-20T09:29:49;6.85;;;2.72;;
37067;SDS011;22982;42.848;25.468;2023-07-20T09:34:52;6.70;;;2.67;;
37067;SDS011;22982;42.848;25.468;2023-07-20T09:39:55;6.28;;;3.03;;
37067;SDS011;22982;42.848;25.468;2023-07-20T09:45:00;7.93;;;2.72;;
37067;SDS011;22982;42.848;25.468;2023-07-20T09:50:04;7.38;;;2.88;;
37067;SDS011;22982;42.848;25.468;2023-07-20T09:55:15;8.07;;;2.92;;
37067;SDS011;22982;42.848;25.468;2023-07-20T10:00:19;8.35;;;2.80;;
37067;SDS011;22982;42.848;25.468;2023-07-20T10:12:15;8.55;;;2.70;;
37067;SDS011;22982;42.848;25.468;2023-07-20T10:17:19;5.55;;;2.75;;
37067;SDS011;22982;42.848;25.468;2023-07-20T10:22:26;6.05;;;2.47;;
37067;SDS011;22982;42.848;25.468;2023-07-20T10:27:36;6.68;;;2.33;;
37067;SDS011;22982;42.848;25.468;2023-07-20T10:32:41;7.80;;;3.10;;
37067;SDS011;22982;42.848;25.468;2023-07-20T10:37:51;7.63;;;2.60;;
37067;SDS011;22982;42.848;25.468;2023-07-20T10:43:02;3.78;;;2.30;;
37067;SDS011;22982;42.848;25.468;2023-07-20T10:53:21;8.15;;;3.40;;
37067;SDS011;22982;42.848;25.468;2023-07-20T10:58:23;5.25;;;2.65;;
37067;SDS011;22982;42.848;25.468;2023-07-20T11:03:30;6.00;;;2.80;;
37067;SDS011;22982;42.848;25.468;2023-07-20T11:08:39;5.70;;;2.73;;
37067;SDS011;22982;42.848;25.468;2023-07-20T11:18:59;3.58;;;2.50;;
37067;SDS011;22982;42.848;25.468;2023-07-20T11:24:02;5.60;;;2.50;;
37067;SDS011;22982;42.848;25.468;2023-07-20T11:29:05;4.32;;;2.22;;
37067;SDS011;22982;42.848;25.468;2023-07-20T11:34:29;4.95;;;2.13;;
37067;SDS011;22982;42.848;25.468;2023-07-20T11:46:19;3.88;;;2.28;;
37067;SDS011;22982;42.848;25.468;2023-07-20T11:51:23;4.65;;;2.05;;
37067;SDS011;22982;42.848;25.468;2023-07-20T11:56:26;2.78;;;1.80;;
37067;SDS011;22982;42.848;25.468;2023-07-20T12:01:30;3.97;;;1.90;;
37067;SDS011;22982;42.848;25.468;2023-07-20T12:06:34;3.13;;;1.90;;
37067;SDS011;22982;42.848;25.468;2023-07-20T12:11:38;2.65;;;2.33;;
37067;SDS011;22982;42.848;25.468;2023-07-20T12:16:41;6.22;;;2.47;;
37067;SDS011;22982;42.848;25.468;2023-07-20T12:21:43;4.90;;;2.20;;
37067;SDS011;22982;42.848;25.468;2023-07-20T12:26:46;6.13;;;2.38;;
37067;SDS011;22982;42.848;25.468;2023-07-20T12:31:48;5.28;;;2.35;;
37067;SDS011;22982;42.848;25.468;2023-07-20T12:36:51;7.97;;;2.78;;
37067;SDS011;22982;42.848;25.468;2023-07-20T12:41:54;5.90;;;2.42;;
37067;SDS011;22982;42.848;25.468;2023-07-20T12:46:56;7.57;;;3.25;;
37067;SDS011;22982;42.848;25.468;2023-07-20T12:51:59;4.75;;;2.70;;
37067;SDS011;22982;42.848;25.468;2023-07-20T12:57:01;4.47;;;2.95;;
37067;SDS011;22982;42.848;25.468;2023-07-20T13:02:07;5.32;;;2.92;;
37067;SDS011;22982;42.848;25.468;2023-07-20T13:07:10;7.28;;;3.22;;
37067;SDS011;22982;42.848;25.468;2023-07-20T13:12:16;8.40;;;3.13;;
37067;SDS011;22982;42.848;25.468;2023-07-20T13:17:19;5.32;;;3.00;;
37067;SDS011;22982;42.848;25.468;2023-07-20T13:22:22;7.97;;;2.83;;
37067;SDS011;22982;42.848;25.468;2023-07-20T13:27:29;5.75;;;2.65;;
37067;SDS011;22982;42.848;25.468;2023-07-20T13:32:50;6.45;;;3.28;;
37067;SDS011;22982;42.848;25.468;2023-07-20T13:37:55;5.25;;;2.45;;
37067;SDS011;22982;42.848;25.468;2023-07-20T13:42:58;8.43;;;3.40;;
37067;SDS011;22982;42.848;25.468;2023-07-20T13:48:01;7.47;;;3.38;;
37067;SDS011;22982;42.848;25.468;2023-07-20T13:53:07;6.75;;;3.30;;
37067;SDS011;22982;42.848;25.468;2023-07-20T13:58:13;8.52;;;3.00;;
37067;SDS011;22982;42.848;25.468;2023-07-20T14:03:34;10.63;;;3.10;;
37067;SDS011;22982;42.848;25.468;2023-07-20T14:08:38;7.10;;;3.17;;
37067;SDS011;22982;42.848;25.468;2023-07-20T14:13:43;6.07;;;3.30;;
37067;SDS011;22982;42.848;25.468;2023-07-20T14:18:48;9.52;;;3.22;;
37067;SDS011;22982;42.848;25.468;2023-07-20T14:23:52;6.18;;;3.22;;
37067;SDS011;22982;42.848;25.468;2023-07-20T14:28:57;7.55;;;3.45;;
37067;SDS011;22982;42.848;25.468;2023-07-20T14:34:00;5.15;;;3.47;;
37067;SDS011;22982;42.848;25.468;2023-07-20T14:39:03;6.72;;;3.60;;
37067;SDS011;22982;42.848;25.468;2023-07-20T14:44:06;7.88;;;3.67;;
37067;SDS011;22982;42.848;25.468;2023-07-20T15:07:36;6.05;;;4.00;;
37067;SDS011;22982;42.848;25.468;2023-07-20T15:12:39;6.03;;;3.58;;
37067;SDS011;22982;42.848;25.468;2023-07-20T15:17:42;11.05;;;3.58;;
37067;SDS011;22982;42.848;25.468;2023-07-20T15:22:47;5.45;;;3.35;;
37067;SDS011;22982;42.848;25.468;2023-07-20T15:27:50;8.52;;;3.30;;
37067;SDS011;22982;42.848;25.468;2023-07-20T15:32:54;7.18;;;3.38;;
37067;SDS011;22982;42.848;25.468;2023-07-20T15:38:01;6.22;;;3.92;;
37067;SDS011;22982;42.848;25.468;2023-07-20T15:43:04;8.15;;;5.70;;
37067;SDS011;22982;42.848;25.468;2023-07-20T15:48:22;8.93;;;5.63;;
37067;SDS011;22982;42.848;25.468;2023-07-20T15:53:24;7.70;;;4.47;;
37067;SDS011;22982;42.848;25.468;2023-07-20T15:58:27;6.85;;;3.03;;
37067;SDS011;22982;42.848;25.468;2023-07-20T16:03:30;8.85;;;3.47;;
37067;SDS011;22982;42.848;25.468;2023-07-20T16:08:36;10.93;;;3.85;;
37067;SDS011;22982;42.848;25.468;2023-07-20T16:13:38;8.70;;;3.92;;
37067;SDS011;22982;42.848;25.468;2023-07-20T16:18:41;8.10;;;4.65;;
37067;SDS011;22982;42.848;25.468;2023-07-20T16:23:44;9.45;;;4.13;;
37067;SDS011;22982;42.848;25.468;2023-07-20T16:35:44;6.90;;;3.70;;
37067;SDS011;22982;42.848;25.468;2023-07-20T16:40:49;5.93;;;3.13;;
37067;SDS011;22982;42.848;25.468;2023-07-20T16:46:01;8.80;;;3.95;;
37067;SDS011;22982;42.848;25.468;2023-07-20T16:51:24;10.27;;;3.95;;
37067;SDS011;22982;42.848;25.468;2023-07-20T16:56:28;7.10;;;3.85;;
37067;SDS011;22982;42.848;25.468;2023-07-20T17:01:31;6.55;;;5.28;;
37067;SDS011;22982;42.848;25.468;2023-07-20T17:06:35;11.88;;;5.72;;
37067;SDS011;22982;42.848;25.468;2023-07-20T17:11:38;9.85;;;4.85;;
37067;SDS011;22982;42.848;25.468;2023-07-20T17:16:41;15.00;;;3.95;;
37067;SDS011;22982;42.848;25.468;2023-07-20T17:21:44;15.65;;;3.90;;
37067;SDS011;22982;42.848;25.468;2023-07-20T17:26:47;6.93;;;2.97;;
37067;SDS011;22982;42.848;25.468;2023-07-20T17:32:10;10.00;;;2.92;;
37067;SDS011;22982;42.848;25.468;2023-07-20T17:37:12;8.60;;;3.72;;
37067;SDS011;22982;42.848;25.468;2023-07-20T17:42:18;8.63;;;4.68;;
37067;SDS011;22982;42.848;25.468;2023-07-20T17:47:24;13.63;;;4.80;;
37067;SDS011;22982;42.848;25.468;2023-07-20T17:52:27;13.02;;;4.63;;
37067;SDS011;22982;42.848;25.468;2023-07-20T17:57:30;8.40;;;4.07;;
37067;SDS011;22982;42.848;25.468;2023-07-20T18:02:33;7.70;;;3.80;;
37067;SDS011;22982;42.848;25.468;2023-07-20T18:07:36;11.60;;;4.20;;
37067;SDS011;22982;42.848;25.468;2023-07-20T18:12:39;9.38;;;3.95;;
37067;SDS011;22982;42.848;25.468;2023-07-20T18:17:43;15.63;;;4.13;;
37067;SDS011;22982;42.848;25.468;2023-07-20T18:22:45;7.35;;;3.38;;
37067;SDS011;22982;42.848;25.468;2023-07-20T18:27:48;9.80;;;4.10;;
37067;SDS011;22982;42.848;25.468;2023-07-20T18:32:50;6.55;;;3.95;;
37067;SDS011;22982;42.848;25.468;2023-07-20T18:37:54;8.40;;;4.00;;
37067;SDS011;22982;42.848;25.468;2023-07-20T18:42:56;6.97;;;4.03;;
37067;SDS011;22982;42.848;25.468;2023-07-20T18:47:59;8.00;;;3.90;;
37067;SDS011;22982;42.848;25.468;2023-07-20T18:53:02;8.60;;;4.85;;
37067;SDS011;22982;42.848;25.468;2023-07-20T18:58:05;13.13;;;4.50;;
37067;SDS011;22982;42.848;25.468;2023-07-20T19:03:09;9.23;;;4.75;;
37067;SDS011;22982;42.848;25.468;2023-07-20T19:08:11;12.15;;;4.57;;
37067;SDS011;22982;42.848;25.468;2023-07-20T19:13:14;8.93;;;4.80;;
37067;SDS011;22982;42.848;25.468;2023-07-20T19:18:17;9.23;;;5.03;;
37067;SDS011;22982;42.848;25.468;2023-07-20T19:23:19;11.43;;;4.57;;
37067;SDS011;22982;42.848;25.468;2023-07-20T19:28:23;8.65;;;4.47;;
37067;SDS011;22982;42.848;25.468;2023-07-20T19:33:25;6.40;;;4.30;;
37067;SDS011;22982;42.848;25.468;2023-07-20T19:38:28;10.38;;;4.43;;
37067;SDS011;22982;42.848;25.468;2023-07-20T19:43:31;8.18;;;4.70;;
37067;SDS011;22982;42.848;25.468;2023-07-20T19:48:34;11.15;;;5.03;;
37067;SDS011;22982;42.848;25.468;2023-07-20T19:53:39;8.82;;;4.07;;
37067;SDS011;22982;42.848;25.468;2023-07-20T19:59:01;9.35;;;4.32;;
37067;SDS011;22982;42.848;25.468;2023-07-20T20:04:04;6.15;;;4.70;;
37067;SDS011;22982;42.848;25.468;2023-07-20T20:09:09;9.50;;;4.88;;
37067;SDS011;22982;42.848;25.468;2023-07-20T20:14:13;6.03;;;3.50;;
37067;SDS011;22982;42.848;25.468;2023-07-20T20:19:18;10.27;;;4.95;;
37067;SDS011;22982;42.848;25.468;2023-07-20T20:24:21;8.30;;;4.32;;
37067;SDS011;22982;42.848;25.468;2023-07-20T20:29:24;8.70;;;4.18;;
37067;SDS011;22982;42.848;25.468;2023-07-20T20:34:27;9.27;;;4.35;;
37067;SDS011;22982;42.848;25.468;2023-07-20T20:39:29;6.32;;;4.18;;
37067;SDS011;22982;42.848;25.468;2023-07-20T20:44:36;6.53;;;4.57;;
37067;SDS011;22982;42.848;25.468;2023-07-20T20:49:38;6.10;;;4.53;;
37067;SDS011;22982;42.848;25.468;2023-07-20T20:54:47;11.07;;;5.20;;
37067;SDS011;22982;42.848;25.468;2023-07-20T20:59:50;4.78;;;4.00;;
37067;SDS011;22982;42.848;25.468;2023-07-20T21:04:53;8.30;;;4.55;;
37067;SDS011;22982;42.848;25.468;2023-07-20T21:16:41;11.77;;;4.97;;
37067;SDS011;22982;42.848;25.468;2023-07-20T21:21:43;9.25;;;4.57;;
37067;SDS011;22982;42.848;25.468;2023-07-20T21:26:46;7.35;;;4.78;;
37067;SDS011;22982;42.848;25.468;2023-07-20T21:31:48;10.40;;;4.57;;
37067;SDS011;22982;42.848;25.468;2023-07-20T21:36:51;9.00;;;5.00;;
37067;SDS011;22982;42.848;25.468;2023-07-20T21:41:53;8.50;;;4.97;;
37067;SDS011;22982;42.848;25.468;2023-07-20T21:46:55;9.57;;;4.80;;
37067;SDS011;22982;42.848;25.468;2023-07-20T21:51:58;10.45;;;5.55;;
37067;SDS011;22982;42.848;25.468;2023-07-20T21:57:00;7.85;;;4.93;;
37067;SDS011;22982;42.848;25.468;2023-07-20T22:02:03;6.97;;;4.97;;
37067;SDS011;22982;42.848;25.468;2023-07-20T22:07:06;8.73;;;4.80;;
37067;SDS011;22982;42.848;25.468;2023-07-20T22:12:15;8.67;;;5.60;;
37067;SDS011;22982;42.848;25.468;2023-07-20T22:17:19;8.65;;;5.55;;
37067;SDS011;22982;42.848;25.468;2023-07-20T22:22:36;8.55;;;5.60;;
37067;SDS011;22982;42.848;25.468;2023-07-20T22:27:38;10.55;;;4.72;;
37067;SDS011;22982;42.848;25.468;2023-07-20T22:32:41;8.00;;;5.50;;
37067;SDS011;22982;42.848;25.468;2023-07-20T22:37:47;7.05;;;5.53;;
37067;SDS011;22982;42.848;25.468;2023-07-20T22:42:52;10.55;;;6.10;;
37067;SDS011;22982;42.848;25.468;2023-07-20T22:47:54;7.55;;;5.53;;
37067;SDS011;22982;42.848;25.468;2023-07-20T22:52:57;11.35;;;5.43;;
37067;SDS011;22982;42.848;25.468;2023-07-20T22:58:00;13.20;;;6.22;;
37067;SDS011;22982;42.848;25.468;2023-07-20T23:03:02;15.00;;;6.03;;
37067;SDS011;22982;42.848;25.468;2023-07-20T23:08:06;9.20;;;5.80;;
37067;SDS011;22982;42.848;25.468;2023-07-20T23:13:08;8.88;;;5.75;;
37067;SDS011;22982;42.848;25.468;2023-07-20T23:18:11;11.80;;;6.53;;
37067;SDS011;22982;42.848;25.468;2023-07-20T23:23:13;10.25;;;5.97;;
37067;SDS011;22982;42.848;25.468;2023-07-20T23:28:16;7.82;;;5.80;;
37067;SDS011;22982;42.848;25.468;2023-07-20T23:33:19;10.73;;;6.35;;
37067;SDS011;22982;42.848;25.468;2023-07-20T23:38:23;8.32;;;5.65;;
37067;SDS011;22982;42.848;25.468;2023-07-20T23:43:27;8.70;;;6.32;;
37067;SDS011;22982;42.848;25.468;2023-07-20T23:48:33;8.80;;;6.05;;
37067;SDS011;22982;42.848;25.468;2023-07-20T23:53:44;11.05;;;6.57;;
37067;SDS011;22982;42.848;25.468;2023-07-20T23:58:47;11.50;;;6.35;;
